sensor_id;sensor_type;location;lat;lon;timestamp;P1;durP1;ratioP1;P2;durP2;ratioP2
69310;SDS011;56430;48.154;16.458;2022-12-29T00:00:07;8.80;;;4.10;;
69310;SDS011;56430;48.154;16.458;2022-12-29T00:02:36;12.00;;;3.88;;
69310;SDS011;56430;48.154;16.458;2022-12-29T00:05:03;9.95;;;3.92;;
69310;SDS011;56430;48.154;16.458;2022-12-29T00:07:32;9.47;;;4.13;;
69310;SDS011;56430;48.154;16.458;2022-12-29T00:09:59;9.23;;;3.55;;
69310;SDS011;56430;48.154;16.458;2022-12-29T00:12:27;12.85;;;4.15;;
69310;SDS011;56430;48.154;16.458;2022-12-29T00:15:16;12.30;;;4.43;;
69310;SDS011;56430;48.154;16.458;2022-12-29T00:18:01;9.50;;;4.15;;
69310;SDS011;56430;48.154;16.458;2022-12-29T00:20:28;11.67;;;4.23;;
69310;SDS011;56430;48.154;16.458;2022-12-29T00:23:12;10.52;;;4.22;;
69310;SDS011;56430;48.154;16.458;2022-12-29T00:25:57;10.93;;;4.45;;
69310;SDS011;56430;48.154;16.458;2022-12-29T00:28:41;10.77;;;4.07;;
69310;SDS011;56430;48.154;16.458;2022-12-29T00:31:27;11.10;;;4.70;;
69310;SDS011;56430;48.154;16.458;2022-12-29T00:34:12;12.00;;;4.87;;
69310;SDS011;56430;48.154;16.458;2022-12-29T00:36:56;12.60;;;4.78;;
69310;SDS011;56430;48.154;16.458;2022-12-29T00:39:23;12.35;;;5.20;;
69310;SDS011;56430;48.154;16.458;2022-12-29T00:42:08;11.45;;;4.95;;
69310;SDS011;56430;48.154;16.458;2022-12-29T00:44:58;15.20;;;5.93;;
69310;SDS011;56430;48.154;16.458;2022-12-29T00:47:27;17.47;;;6.50;;
69310;SDS011;56430;48.154;16.458;2022-12-29T00:49:54;19.40;;;6.75;;
69310;SDS011;56430;48.154;16.458;2022-12-29T00:52:21;17.25;;;6.70;;
69310;SDS011;56430;48.154;16.458;2022-12-29T00:54:48;17.52;;;6.05;;
69310;SDS011;56430;48.154;16.458;2022-12-29T00:57:15;14.73;;;5.38;;
69310;SDS011;56430;48.154;16.458;2022-12-29T00:59:42;15.97;;;5.33;;
69310;SDS011;56430;48.154;16.458;2022-12-29T01:02:10;12.32;;;5.00;;
69310;SDS011;56430;48.154;16.458;2022-12-29T01:04:39;14.48;;;5.18;;
69310;SDS011;56430;48.154;16.458;2022-12-29T01:07:06;16.40;;;6.05;;
69310;SDS011;56430;48.154;16.458;2022-12-29T01:09:34;17.50;;;5.90;;
69310;SDS011;56430;48.154;16.458;2022-12-29T01:12:18;15.67;;;4.80;;
69310;SDS011;56430;48.154;16.458;2022-12-29T01:15:06;16.75;;;5.30;;
69310;SDS011;56430;48.154;16.458;2022-12-29T01:17:34;15.45;;;5.90;;
69310;SDS011;56430;48.154;16.458;2022-12-29T01:20:04;14.05;;;5.28;;
69310;SDS011;56430;48.154;16.458;2022-12-29T01:22:31;16.13;;;5.50;;
69310;SDS011;56430;48.154;16.458;2022-12-29T01:24:59;11.57;;;5.40;;
69310;SDS011;56430;48.154;16.458;2022-12-29T01:27:29;14.52;;;5.68;;
69310;SDS011;56430;48.154;16.458;2022-12-29T01:29:56;14.80;;;5.50;;
69310;SDS011;56430;48.154;16.458;2022-12-29T01:32:23;15.13;;;5.53;;
69310;SDS011;56430;48.154;16.458;2022-12-29T01:34:50;14.75;;;5.30;;
69310;SDS011;56430;48.154;16.458;2022-12-29T01:37:19;17.30;;;5.53;;
69310;SDS011;56430;48.154;16.458;2022-12-29T01:39:46;16.63;;;5.93;;
69310;SDS011;56430;48.154;16.458;2022-12-29T01:42:14;12.95;;;5.45;;
69310;SDS011;56430;48.154;16.458;2022-12-29T01:44:47;16.05;;;5.93;;
69310;SDS011;56430;48.154;16.458;2022-12-29T01:47:30;12.48;;;5.53;;
69310;SDS011;56430;48.154;16.458;2022-12-29T01:50:01;16.07;;;5.70;;
69310;SDS011;56430;48.154;16.458;2022-12-29T01:52:33;16.70;;;6.13;;
69310;SDS011;56430;48.154;16.458;2022-12-29T01:55:02;13.13;;;5.47;;
69310;SDS011;56430;48.154;16.458;2022-12-29T01:57:31;15.82;;;5.32;;
69310;SDS011;56430;48.154;16.458;2022-12-29T02:00:05;13.07;;;5.90;;
69310;SDS011;56430;48.154;16.458;2022-12-29T02:02:35;14.27;;;6.20;;
69310;SDS011;56430;48.154;16.458;2022-12-29T02:05:07;12.70;;;5.70;;
69310;SDS011;56430;48.154;16.458;2022-12-29T02:07:38;12.73;;;5.50;;
69310;SDS011;56430;48.154;16.458;2022-12-29T02:10:06;13.20;;;5.82;;
69310;SDS011;56430;48.154;16.458;2022-12-29T02:12:33;15.07;;;6.25;;
69310;SDS011;56430;48.154;16.458;2022-12-29T02:15:01;13.70;;;5.60;;
69310;SDS011;56430;48.154;16.458;2022-12-29T02:17:36;14.38;;;5.22;;
69310;SDS011;56430;48.154;16.458;2022-12-29T02:20:17;13.27;;;5.40;;
69310;SDS011;56430;48.154;16.458;2022-12-29T02:23:11;17.95;;;5.97;;
69310;SDS011;56430;48.154;16.458;2022-12-29T02:25:52;16.40;;;6.13;;
69310;SDS011;56430;48.154;16.458;2022-12-29T02:28:40;14.20;;;5.63;;
69310;SDS011;56430;48.154;16.458;2022-12-29T02:31:25;17.48;;;5.85;;
69310;SDS011;56430;48.154;16.458;2022-12-29T02:33:58;15.18;;;5.55;;
69310;SDS011;56430;48.154;16.458;2022-12-29T02:36:32;16.23;;;6.05;;
69310;SDS011;56430;48.154;16.458;2022-12-29T02:39:07;12.18;;;5.13;;
69310;SDS011;56430;48.154;16.458;2022-12-29T02:41:42;13.17;;;5.50;;
69310;SDS011;56430;48.154;16.458;2022-12-29T02:44:15;14.43;;;5.63;;
69310;SDS011;56430;48.154;16.458;2022-12-29T02:46:51;12.77;;;5.13;;
69310;SDS011;56430;48.154;16.458;2022-12-29T02:49:22;13.57;;;5.38;;
69310;SDS011;56430;48.154;16.458;2022-12-29T02:51:54;15.13;;;5.30;;
69310;SDS011;56430;48.154;16.458;2022-12-29T02:54:24;16.70;;;5.57;;
69310;SDS011;56430;48.154;16.458;2022-12-29T02:57:27;13.32;;;5.30;;
69310;SDS011;56430;48.154;16.458;2022-12-29T02:59:57;13.02;;;4.70;;
69310;SDS011;56430;48.154;16.458;2022-12-29T03:02:31;14.77;;;5.40;;
69310;SDS011;56430;48.154;16.458;2022-12-29T03:05:35;12.70;;;5.40;;
69310;SDS011;56430;48.154;16.458;2022-12-29T03:08:18;12.40;;;5.43;;
69310;SDS011;56430;48.154;16.458;2022-12-29T03:10:54;14.80;;;5.50;;
69310;SDS011;56430;48.154;16.458;2022-12-29T03:13:26;11.38;;;4.55;;
69310;SDS011;56430;48.154;16.458;2022-12-29T03:16:15;10.48;;;4.28;;
69310;SDS011;56430;48.154;16.458;2022-12-29T03:18:48;11.90;;;4.57;;
69310;SDS011;56430;48.154;16.458;2022-12-29T03:21:20;11.00;;;4.50;;
69310;SDS011;56430;48.154;16.458;2022-12-29T03:24:14;10.98;;;4.15;;
69310;SDS011;56430;48.154;16.458;2022-12-29T03:26:42;12.77;;;4.22;;
69310;SDS011;56430;48.154;16.458;2022-12-29T03:29:12;12.18;;;4.65;;
69310;SDS011;56430;48.154;16.458;2022-12-29T03:31:40;11.82;;;4.78;;
69310;SDS011;56430;48.154;16.458;2022-12-29T03:34:10;11.20;;;4.30;;
69310;SDS011;56430;48.154;16.458;2022-12-29T03:36:39;13.05;;;4.80;;
69310;SDS011;56430;48.154;16.458;2022-12-29T03:39:10;10.90;;;4.53;;
69310;SDS011;56430;48.154;16.458;2022-12-29T03:41:40;12.15;;;4.60;;
69310;SDS011;56430;48.154;16.458;2022-12-29T03:44:08;13.20;;;4.35;;
69310;SDS011;56430;48.154;16.458;2022-12-29T03:46:36;11.17;;;4.30;;
69310;SDS011;56430;48.154;16.458;2022-12-29T03:49:04;10.50;;;4.63;;
69310;SDS011;56430;48.154;16.458;2022-12-29T03:51:32;10.95;;;4.28;;
69310;SDS011;56430;48.154;16.458;2022-12-29T03:54:00;10.82;;;4.88;;
69310;SDS011;56430;48.154;16.458;2022-12-29T03:56:27;12.98;;;4.45;;
69310;SDS011;56430;48.154;16.458;2022-12-29T03:58:54;12.20;;;4.00;;
69310;SDS011;56430;48.154;16.458;2022-12-29T04:01:21;12.82;;;4.45;;
69310;SDS011;56430;48.154;16.458;2022-12-29T04:03:48;15.98;;;4.70;;
69310;SDS011;56430;48.154;16.458;2022-12-29T04:06:16;12.07;;;4.82;;
69310;SDS011;56430;48.154;16.458;2022-12-29T04:08:44;11.27;;;4.78;;
69310;SDS011;56430;48.154;16.458;2022-12-29T04:11:12;11.17;;;4.53;;
69310;SDS011;56430;48.154;16.458;2022-12-29T04:13:39;14.13;;;4.50;;
69310;SDS011;56430;48.154;16.458;2022-12-29T04:16:07;10.00;;;4.00;;
69310;SDS011;56430;48.154;16.458;2022-12-29T04:18:34;12.00;;;4.97;;
69310;SDS011;56430;48.154;16.458;2022-12-29T04:21:01;10.57;;;4.60;;
69310;SDS011;56430;48.154;16.458;2022-12-29T04:23:29;10.10;;;4.60;;
69310;SDS011;56430;48.154;16.458;2022-12-29T04:25:59;10.68;;;4.40;;
69310;SDS011;56430;48.154;16.458;2022-12-29T04:28:26;13.77;;;5.68;;
69310;SDS011;56430;48.154;16.458;2022-12-29T04:30:54;13.43;;;5.18;;
69310;SDS011;56430;48.154;16.458;2022-12-29T04:33:21;11.15;;;4.55;;
69310;SDS011;56430;48.154;16.458;2022-12-29T04:35:48;10.10;;;4.50;;
69310;SDS011;56430;48.154;16.458;2022-12-29T04:38:16;19.20;;;5.50;;
69310;SDS011;56430;48.154;16.458;2022-12-29T04:40:43;9.88;;;4.80;;
69310;SDS011;56430;48.154;16.458;2022-12-29T04:43:12;12.05;;;4.85;;
69310;SDS011;56430;48.154;16.458;2022-12-29T04:45:42;11.15;;;3.88;;
69310;SDS011;56430;48.154;16.458;2022-12-29T04:48:10;10.23;;;4.07;;
69310;SDS011;56430;48.154;16.458;2022-12-29T04:50:38;13.88;;;5.40;;
69310;SDS011;56430;48.154;16.458;2022-12-29T04:53:05;14.02;;;5.13;;
69310;SDS011;56430;48.154;16.458;2022-12-29T04:55:32;10.95;;;4.47;;
69310;SDS011;56430;48.154;16.458;2022-12-29T04:58:02;12.32;;;4.75;;
69310;SDS011;56430;48.154;16.458;2022-12-29T05:00:34;15.30;;;6.83;;
69310;SDS011;56430;48.154;16.458;2022-12-29T05:03:01;13.43;;;4.85;;
69310;SDS011;56430;48.154;16.458;2022-12-29T05:05:29;13.43;;;4.32;;
69310;SDS011;56430;48.154;16.458;2022-12-29T05:07:56;13.40;;;5.03;;
69310;SDS011;56430;48.154;16.458;2022-12-29T05:10:23;14.57;;;5.75;;
69310;SDS011;56430;48.154;16.458;2022-12-29T05:12:51;13.30;;;5.60;;
69310;SDS011;56430;48.154;16.458;2022-12-29T05:15:18;12.80;;;4.90;;
69310;SDS011;56430;48.154;16.458;2022-12-29T05:17:47;13.05;;;5.00;;
69310;SDS011;56430;48.154;16.458;2022-12-29T05:20:14;13.25;;;4.70;;
69310;SDS011;56430;48.154;16.458;2022-12-29T05:22:42;11.95;;;5.32;;
69310;SDS011;56430;48.154;16.458;2022-12-29T05:25:09;13.17;;;4.67;;
69310;SDS011;56430;48.154;16.458;2022-12-29T05:27:36;14.25;;;5.35;;
69310;SDS011;56430;48.154;16.458;2022-12-29T05:30:04;14.07;;;6.57;;
69310;SDS011;56430;48.154;16.458;2022-12-29T05:32:32;14.82;;;5.68;;
69310;SDS011;56430;48.154;16.458;2022-12-29T05:35:01;16.98;;;6.25;;
69310;SDS011;56430;48.154;16.458;2022-12-29T05:37:28;16.30;;;6.13;;
69310;SDS011;56430;48.154;16.458;2022-12-29T05:39:56;18.15;;;7.30;;
69310;SDS011;56430;48.154;16.458;2022-12-29T05:42:25;16.75;;;7.20;;
69310;SDS011;56430;48.154;16.458;2022-12-29T05:44:52;16.02;;;6.75;;
69310;SDS011;56430;48.154;16.458;2022-12-29T05:47:19;16.40;;;7.07;;
69310;SDS011;56430;48.154;16.458;2022-12-29T05:49:46;20.53;;;7.10;;
69310;SDS011;56430;48.154;16.458;2022-12-29T05:52:15;16.90;;;6.38;;
69310;SDS011;56430;48.154;16.458;2022-12-29T05:54:42;19.77;;;6.30;;
69310;SDS011;56430;48.154;16.458;2022-12-29T05:57:09;18.27;;;6.65;;
69310;SDS011;56430;48.154;16.458;2022-12-29T05:59:37;19.42;;;5.85;;
69310;SDS011;56430;48.154;16.458;2022-12-29T06:02:04;15.53;;;6.93;;
69310;SDS011;56430;48.154;16.458;2022-12-29T06:04:31;19.73;;;7.43;;
69310;SDS011;56430;48.154;16.458;2022-12-29T06:06:58;17.13;;;6.10;;
69310;SDS011;56430;48.154;16.458;2022-12-29T06:09:27;15.98;;;5.90;;
69310;SDS011;56430;48.154;16.458;2022-12-29T06:11:54;16.38;;;6.22;;
69310;SDS011;56430;48.154;16.458;2022-12-29T06:14:21;18.27;;;6.27;;
69310;SDS011;56430;48.154;16.458;2022-12-29T06:16:49;18.10;;;6.03;;
69310;SDS011;56430;48.154;16.458;2022-12-29T06:19:16;16.92;;;6.93;;
69310;SDS011;56430;48.154;16.458;2022-12-29T06:21:43;21.85;;;8.23;;
69310;SDS011;56430;48.154;16.458;2022-12-29T06:24:10;17.42;;;6.97;;
69310;SDS011;56430;48.154;16.458;2022-12-29T06:26:39;15.50;;;6.37;;
69310;SDS011;56430;48.154;16.458;2022-12-29T06:29:07;18.27;;;6.85;;
69310;SDS011;56430;48.154;16.458;2022-12-29T06:31:35;17.45;;;7.03;;
69310;SDS011;56430;48.154;16.458;2022-12-29T06:34:02;15.10;;;5.63;;
69310;SDS011;56430;48.154;16.458;2022-12-29T06:36:29;16.50;;;6.10;;
69310;SDS011;56430;48.154;16.458;2022-12-29T06:38:56;17.83;;;7.47;;
69310;SDS011;56430;48.154;16.458;2022-12-29T06:41:24;20.65;;;7.57;;
69310;SDS011;56430;48.154;16.458;2022-12-29T06:43:52;18.55;;;6.53;;
69310;SDS011;56430;48.154;16.458;2022-12-29T06:46:19;18.02;;;6.93;;
69310;SDS011;56430;48.154;16.458;2022-12-29T06:48:47;18.52;;;7.18;;
69310;SDS011;56430;48.154;16.458;2022-12-29T06:51:14;15.80;;;6.90;;
69310;SDS011;56430;48.154;16.458;2022-12-29T06:53:41;19.85;;;6.85;;
69310;SDS011;56430;48.154;16.458;2022-12-29T06:56:09;17.42;;;7.05;;
69310;SDS011;56430;48.154;16.458;2022-12-29T06:58:36;16.85;;;6.97;;
69310;SDS011;56430;48.154;16.458;2022-12-29T07:01:05;14.80;;;5.65;;
69310;SDS011;56430;48.154;16.458;2022-12-29T07:03:32;12.13;;;5.50;;
69310;SDS011;56430;48.154;16.458;2022-12-29T07:05:59;16.08;;;6.07;;
69310;SDS011;56430;48.154;16.458;2022-12-29T07:08:27;16.75;;;6.47;;
69310;SDS011;56430;48.154;16.458;2022-12-29T07:10:54;15.15;;;6.47;;
69310;SDS011;56430;48.154;16.458;2022-12-29T07:13:21;18.98;;;6.95;;
69310;SDS011;56430;48.154;16.458;2022-12-29T07:15:49;18.90;;;7.80;;
69310;SDS011;56430;48.154;16.458;2022-12-29T07:18:17;22.52;;;7.88;;
69310;SDS011;56430;48.154;16.458;2022-12-29T07:20:44;17.65;;;6.78;;
69310;SDS011;56430;48.154;16.458;2022-12-29T07:23:12;18.27;;;6.45;;
69310;SDS011;56430;48.154;16.458;2022-12-29T07:25:39;20.40;;;7.07;;
69310;SDS011;56430;48.154;16.458;2022-12-29T07:28:07;23.53;;;7.63;;
69310;SDS011;56430;48.154;16.458;2022-12-29T07:30:36;17.58;;;7.15;;
69310;SDS011;56430;48.154;16.458;2022-12-29T07:33:03;16.63;;;6.85;;
69310;SDS011;56430;48.154;16.458;2022-12-29T07:35:32;21.80;;;7.63;;
69310;SDS011;56430;48.154;16.458;2022-12-29T07:38:00;17.25;;;6.75;;
69310;SDS011;56430;48.154;16.458;2022-12-29T07:40:27;15.30;;;6.00;;
69310;SDS011;56430;48.154;16.458;2022-12-29T07:42:54;18.00;;;7.00;;
69310;SDS011;56430;48.154;16.458;2022-12-29T07:45:21;18.85;;;7.03;;
69310;SDS011;56430;48.154;16.458;2022-12-29T07:47:49;28.08;;;7.95;;
69310;SDS011;56430;48.154;16.458;2022-12-29T07:50:16;20.13;;;8.07;;
69310;SDS011;56430;48.154;16.458;2022-12-29T07:52:45;18.77;;;6.47;;
69310;SDS011;56430;48.154;16.458;2022-12-29T07:55:13;22.33;;;8.43;;
69310;SDS011;56430;48.154;16.458;2022-12-29T07:57:40;17.55;;;6.70;;
69310;SDS011;56430;48.154;16.458;2022-12-29T08:00:08;25.02;;;7.50;;
69310;SDS011;56430;48.154;16.458;2022-12-29T08:02:36;28.23;;;7.95;;
69310;SDS011;56430;48.154;16.458;2022-12-29T08:05:03;22.57;;;7.37;;
69310;SDS011;56430;48.154;16.458;2022-12-29T08:07:31;25.23;;;8.70;;
69310;SDS011;56430;48.154;16.458;2022-12-29T08:10:00;20.60;;;8.10;;
69310;SDS011;56430;48.154;16.458;2022-12-29T08:12:27;25.67;;;8.23;;
69310;SDS011;56430;48.154;16.458;2022-12-29T08:14:54;28.50;;;9.07;;
69310;SDS011;56430;48.154;16.458;2022-12-29T08:17:21;24.13;;;8.53;;
69310;SDS011;56430;48.154;16.458;2022-12-29T08:19:49;24.20;;;8.73;;
69310;SDS011;56430;48.154;16.458;2022-12-29T08:22:16;26.10;;;9.52;;
69310;SDS011;56430;48.154;16.458;2022-12-29T08:24:43;27.42;;;9.40;;
69310;SDS011;56430;48.154;16.458;2022-12-29T08:27:12;21.15;;;7.15;;
69310;SDS011;56430;48.154;16.458;2022-12-29T08:29:39;26.37;;;8.93;;
69310;SDS011;56430;48.154;16.458;2022-12-29T08:32:06;27.10;;;9.52;;
69310;SDS011;56430;48.154;16.458;2022-12-29T08:34:34;25.95;;;8.98;;
69310;SDS011;56430;48.154;16.458;2022-12-29T08:37:01;27.15;;;8.63;;
69310;SDS011;56430;48.154;16.458;2022-12-29T08:39:29;26.75;;;8.82;;
69310;SDS011;56430;48.154;16.458;2022-12-29T08:41:56;24.80;;;7.67;;
69310;SDS011;56430;48.154;16.458;2022-12-29T08:44:24;23.52;;;7.93;;
69310;SDS011;56430;48.154;16.458;2022-12-29T08:46:52;23.33;;;7.82;;
69310;SDS011;56430;48.154;16.458;2022-12-29T08:49:19;26.33;;;9.68;;
69310;SDS011;56430;48.154;16.458;2022-12-29T08:51:46;22.40;;;7.88;;
69310;SDS011;56430;48.154;16.458;2022-12-29T08:54:14;26.43;;;8.90;;
69310;SDS011;56430;48.154;16.458;2022-12-29T08:56:41;27.55;;;8.85;;
69310;SDS011;56430;48.154;16.458;2022-12-29T08:59:08;23.08;;;8.77;;
69310;SDS011;56430;48.154;16.458;2022-12-29T09:01:37;26.92;;;9.35;;
69310;SDS011;56430;48.154;16.458;2022-12-29T09:04:07;27.00;;;10.48;;
69310;SDS011;56430;48.154;16.458;2022-12-29T09:06:34;24.37;;;7.80;;
69310;SDS011;56430;48.154;16.458;2022-12-29T09:09:02;29.85;;;10.57;;
69310;SDS011;56430;48.154;16.458;2022-12-29T09:11:29;29.48;;;9.38;;
69310;SDS011;56430;48.154;16.458;2022-12-29T09:13:57;25.63;;;9.07;;
69310;SDS011;56430;48.154;16.458;2022-12-29T09:16:24;22.63;;;7.63;;
69310;SDS011;56430;48.154;16.458;2022-12-29T09:18:53;22.83;;;8.60;;
69310;SDS011;56430;48.154;16.458;2022-12-29T09:21:21;28.35;;;9.18;;
69310;SDS011;56430;48.154;16.458;2022-12-29T09:23:48;22.35;;;8.48;;
69310;SDS011;56430;48.154;16.458;2022-12-29T09:26:15;29.35;;;8.98;;
69310;SDS011;56430;48.154;16.458;2022-12-29T09:28:45;27.33;;;10.32;;
69310;SDS011;56430;48.154;16.458;2022-12-29T09:31:13;29.37;;;8.17;;
69310;SDS011;56430;48.154;16.458;2022-12-29T09:33:40;25.88;;;8.63;;
69310;SDS011;56430;48.154;16.458;2022-12-29T09:36:09;28.08;;;9.88;;
69310;SDS011;56430;48.154;16.458;2022-12-29T09:38:36;23.83;;;7.50;;
69310;SDS011;56430;48.154;16.458;2022-12-29T09:41:05;25.67;;;8.00;;
69310;SDS011;56430;48.154;16.458;2022-12-29T09:43:51;24.73;;;7.90;;
69310;SDS011;56430;48.154;16.458;2022-12-29T09:46:25;24.25;;;8.88;;
69310;SDS011;56430;48.154;16.458;2022-12-29T09:48:55;22.88;;;8.48;;
69310;SDS011;56430;48.154;16.458;2022-12-29T09:51:30;24.45;;;8.23;;
69310;SDS011;56430;48.154;16.458;2022-12-29T09:53:58;31.50;;;8.80;;
69310;SDS011;56430;48.154;16.458;2022-12-29T09:56:28;25.73;;;8.70;;
69310;SDS011;56430;48.154;16.458;2022-12-29T09:58:57;24.13;;;8.60;;
69310;SDS011;56430;48.154;16.458;2022-12-29T10:01:28;27.52;;;10.10;;
69310;SDS011;56430;48.154;16.458;2022-12-29T10:03:58;24.77;;;9.13;;
69310;SDS011;56430;48.154;16.458;2022-12-29T10:06:32;28.10;;;9.68;;
69310;SDS011;56430;48.154;16.458;2022-12-29T10:09:02;26.87;;;9.00;;
69310;SDS011;56430;48.154;16.458;2022-12-29T10:11:38;25.05;;;9.57;;
69310;SDS011;56430;48.154;16.458;2022-12-29T10:14:27;29.58;;;9.93;;
69310;SDS011;56430;48.154;16.458;2022-12-29T10:17:12;30.83;;;9.82;;
69310;SDS011;56430;48.154;16.458;2022-12-29T10:19:51;26.40;;;8.25;;
69310;SDS011;56430;48.154;16.458;2022-12-29T10:22:35;31.67;;;10.73;;
69310;SDS011;56430;48.154;16.458;2022-12-29T10:25:11;25.50;;;9.65;;
69310;SDS011;56430;48.154;16.458;2022-12-29T10:27:40;26.73;;;9.43;;
69310;SDS011;56430;48.154;16.458;2022-12-29T10:30:10;28.80;;;8.40;;
69310;SDS011;56430;48.154;16.458;2022-12-29T10:32:39;29.73;;;9.73;;
69310;SDS011;56430;48.154;16.458;2022-12-29T10:35:11;25.30;;;8.53;;
69310;SDS011;56430;48.154;16.458;2022-12-29T10:37:43;28.60;;;10.65;;
69310;SDS011;56430;48.154;16.458;2022-12-29T10:40:16;27.63;;;8.98;;
69310;SDS011;56430;48.154;16.458;2022-12-29T10:42:48;26.20;;;9.50;;
69310;SDS011;56430;48.154;16.458;2022-12-29T10:45:18;30.17;;;9.65;;
69310;SDS011;56430;48.154;16.458;2022-12-29T10:47:49;25.30;;;9.83;;
69310;SDS011;56430;48.154;16.458;2022-12-29T10:50:20;29.23;;;9.93;;
69310;SDS011;56430;48.154;16.458;2022-12-29T10:52:49;29.42;;;11.10;;
69310;SDS011;56430;48.154;16.458;2022-12-29T10:55:18;30.52;;;10.57;;
69310;SDS011;56430;48.154;16.458;2022-12-29T10:57:47;29.77;;;10.68;;
69310;SDS011;56430;48.154;16.458;2022-12-29T11:00:16;31.20;;;10.67;;
69310;SDS011;56430;48.154;16.458;2022-12-29T11:02:59;29.50;;;10.30;;
69310;SDS011;56430;48.154;16.458;2022-12-29T11:05:35;30.30;;;11.65;;
69310;SDS011;56430;48.154;16.458;2022-12-29T11:08:10;28.40;;;10.10;;
69310;SDS011;56430;48.154;16.458;2022-12-29T11:10:38;32.72;;;10.93;;
69310;SDS011;56430;48.154;16.458;2022-12-29T11:13:16;31.23;;;10.50;;
69310;SDS011;56430;48.154;16.458;2022-12-29T11:15:45;26.90;;;10.63;;
69310;SDS011;56430;48.154;16.458;2022-12-29T11:18:17;28.90;;;10.63;;
69310;SDS011;56430;48.154;16.458;2022-12-29T11:20:47;29.05;;;10.80;;
69310;SDS011;56430;48.154;16.458;2022-12-29T11:23:24;27.08;;;9.95;;
69310;SDS011;56430;48.154;16.458;2022-12-29T11:26:07;23.57;;;8.23;;
69310;SDS011;56430;48.154;16.458;2022-12-29T11:28:39;26.55;;;7.85;;
69310;SDS011;56430;48.154;16.458;2022-12-29T11:31:08;27.08;;;10.35;;
69310;SDS011;56430;48.154;16.458;2022-12-29T11:33:36;26.48;;;9.70;;
69310;SDS011;56430;48.154;16.458;2022-12-29T11:36:05;31.63;;;11.18;;
69310;SDS011;56430;48.154;16.458;2022-12-29T11:38:35;29.00;;;11.20;;
69310;SDS011;56430;48.154;16.458;2022-12-29T11:41:04;21.13;;;7.00;;
69310;SDS011;56430;48.154;16.458;2022-12-29T11:43:33;26.60;;;9.10;;
69310;SDS011;56430;48.154;16.458;2022-12-29T11:46:02;33.05;;;11.57;;
69310;SDS011;56430;48.154;16.458;2022-12-29T11:48:31;28.08;;;10.18;;
69310;SDS011;56430;48.154;16.458;2022-12-29T11:51:00;32.13;;;11.50;;
69310;SDS011;56430;48.154;16.458;2022-12-29T11:53:28;26.80;;;9.45;;
69310;SDS011;56430;48.154;16.458;2022-12-29T11:56:04;22.27;;;8.05;;
69310;SDS011;56430;48.154;16.458;2022-12-29T11:58:35;29.10;;;9.52;;
69310;SDS011;56430;48.154;16.458;2022-12-29T12:01:05;29.10;;;11.63;;
69310;SDS011;56430;48.154;16.458;2022-12-29T12:03:35;24.03;;;9.37;;
69310;SDS011;56430;48.154;16.458;2022-12-29T12:06:04;28.55;;;9.32;;
69310;SDS011;56430;48.154;16.458;2022-12-29T12:08:37;21.70;;;7.53;;
69310;SDS011;56430;48.154;16.458;2022-12-29T12:11:09;25.13;;;9.43;;
69310;SDS011;56430;48.154;16.458;2022-12-29T12:13:39;21.95;;;8.73;;
69310;SDS011;56430;48.154;16.458;2022-12-29T12:16:12;20.87;;;8.40;;
69310;SDS011;56430;48.154;16.458;2022-12-29T12:18:43;30.15;;;10.02;;
69310;SDS011;56430;48.154;16.458;2022-12-29T12:21:15;27.88;;;10.63;;
69310;SDS011;56430;48.154;16.458;2022-12-29T12:24:09;28.73;;;10.27;;
69310;SDS011;56430;48.154;16.458;2022-12-29T12:26:53;26.60;;;8.85;;
69310;SDS011;56430;48.154;16.458;2022-12-29T12:29:24;25.97;;;9.50;;
69310;SDS011;56430;48.154;16.458;2022-12-29T12:31:53;28.60;;;10.68;;
69310;SDS011;56430;48.154;16.458;2022-12-29T12:34:23;31.48;;;11.90;;
69310;SDS011;56430;48.154;16.458;2022-12-29T12:36:59;31.52;;;11.32;;
69310;SDS011;56430;48.154;16.458;2022-12-29T12:39:40;28.42;;;10.23;;
69310;SDS011;56430;48.154;16.458;2022-12-29T12:42:21;30.20;;;11.07;;
69310;SDS011;56430;48.154;16.458;2022-12-29T12:45:01;26.83;;;9.93;;
69310;SDS011;56430;48.154;16.458;2022-12-29T12:47:44;29.42;;;10.18;;
69310;SDS011;56430;48.154;16.458;2022-12-29T12:50:23;29.15;;;10.65;;
69310;SDS011;56430;48.154;16.458;2022-12-29T12:53:00;26.80;;;10.30;;
69310;SDS011;56430;48.154;16.458;2022-12-29T12:55:37;28.53;;;10.93;;
69310;SDS011;56430;48.154;16.458;2022-12-29T12:58:13;27.75;;;9.70;;
69310;SDS011;56430;48.154;16.458;2022-12-29T13:00:51;27.45;;;10.57;;
69310;SDS011;56430;48.154;16.458;2022-12-29T13:03:28;35.35;;;11.45;;
69310;SDS011;56430;48.154;16.458;2022-12-29T13:06:04;25.50;;;10.32;;
69310;SDS011;56430;48.154;16.458;2022-12-29T13:08:45;31.63;;;12.03;;
69310;SDS011;56430;48.154;16.458;2022-12-29T13:11:21;34.05;;;12.82;;
69310;SDS011;56430;48.154;16.458;2022-12-29T13:14:01;35.28;;;12.13;;
69310;SDS011;56430;48.154;16.458;2022-12-29T13:16:36;32.22;;;12.00;;
69310;SDS011;56430;48.154;16.458;2022-12-29T13:19:08;27.20;;;11.20;;
69310;SDS011;56430;48.154;16.458;2022-12-29T13:21:48;32.50;;;10.93;;
69310;SDS011;56430;48.154;16.458;2022-12-29T13:24:25;26.38;;;11.10;;
69310;SDS011;56430;48.154;16.458;2022-12-29T13:26:56;31.92;;;11.88;;
69310;SDS011;56430;48.154;16.458;2022-12-29T13:29:29;33.05;;;12.23;;
69310;SDS011;56430;48.154;16.458;2022-12-29T13:32:02;28.17;;;10.75;;
69310;SDS011;56430;48.154;16.458;2022-12-29T13:34:42;28.33;;;10.30;;
69310;SDS011;56430;48.154;16.458;2022-12-29T13:37:14;26.55;;;10.23;;
69310;SDS011;56430;48.154;16.458;2022-12-29T13:39:43;29.50;;;10.85;;
69310;SDS011;56430;48.154;16.458;2022-12-29T13:42:14;28.98;;;11.05;;
69310;SDS011;56430;48.154;16.458;2022-12-29T13:44:45;29.10;;;10.90;;
69310;SDS011;56430;48.154;16.458;2022-12-29T13:47:16;32.30;;;11.80;;
69310;SDS011;56430;48.154;16.458;2022-12-29T13:49:46;25.58;;;9.25;;
69310;SDS011;56430;48.154;16.458;2022-12-29T13:52:16;36.33;;;11.55;;
69310;SDS011;56430;48.154;16.458;2022-12-29T13:54:59;30.05;;;10.73;;
69310;SDS011;56430;48.154;16.458;2022-12-29T13:57:35;29.33;;;10.35;;
69310;SDS011;56430;48.154;16.458;2022-12-29T14:00:13;29.40;;;11.90;;
69310;SDS011;56430;48.154;16.458;2022-12-29T14:02:45;27.77;;;9.43;;
69310;SDS011;56430;48.154;16.458;2022-12-29T14:05:27;29.95;;;11.48;;
69310;SDS011;56430;48.154;16.458;2022-12-29T14:07:59;29.02;;;10.55;;
69310;SDS011;56430;48.154;16.458;2022-12-29T14:10:32;31.50;;;12.07;;
69310;SDS011;56430;48.154;16.458;2022-12-29T14:13:02;32.90;;;11.50;;
69310;SDS011;56430;48.154;16.458;2022-12-29T14:15:33;29.70;;;11.23;;
69310;SDS011;56430;48.154;16.458;2022-12-29T14:18:13;25.48;;;9.23;;
69310;SDS011;56430;48.154;16.458;2022-12-29T14:20:52;27.67;;;10.23;;
69310;SDS011;56430;48.154;16.458;2022-12-29T14:23:28;27.38;;;9.73;;
69310;SDS011;56430;48.154;16.458;2022-12-29T14:26:15;28.87;;;10.77;;
69310;SDS011;56430;48.154;16.458;2022-12-29T14:28:44;30.60;;;10.95;;
69310;SDS011;56430;48.154;16.458;2022-12-29T14:34:26;36.58;;;12.07;;
69310;SDS011;56430;48.154;16.458;2022-12-29T14:36:55;25.17;;;9.25;;
69310;SDS011;56430;48.154;16.458;2022-12-29T14:39:28;31.23;;;10.70;;
69310;SDS011;56430;48.154;16.458;2022-12-29T14:42:03;32.75;;;11.55;;
69310;SDS011;56430;48.154;16.458;2022-12-29T14:44:32;32.55;;;11.63;;